sensor_id;sensor_type;location;lat;lon;timestamp;temperature;humidity
4002;DHT22;2015;48.670;9.060;2023-04-24T00:02:02;9.80;99.90
4002;DHT22;2015;48.670;9.060;2023-04-24T00:04:34;9.80;99.90
4002;DHT22;2015;48.670;9.060;2023-04-24T00:07:07;9.80;99.90
4002;DHT22;2015;48.670;9.060;2023-04-24T00:09:38;9.80;99.90
4002;DHT22;2015;48.670;9.060;2023-04-24T00:12:10;9.90;99.90
4002;DHT22;2015;48.670;9.060;2023-04-24T00:14:42;9.90;99.90
4002;DHT22;2015;48.670;9.060;2023-04-24T00:17:14;9.90;99.90
4002;DHT22;2015;48.670;9.060;2023-04-24T00:19:48;9.90;99.90
4002;DHT22;2015;48.670;9.060;2023-04-24T00:22:22;10.00;99.90
4002;DHT22;2015;48.670;9.060;2023-04-24T00:24:54;10.10;99.90
4002;DHT22;2015;48.670;9.060;2023-04-24T00:27:26;10.20;99.90
4002;DHT22;2015;48.670;9.060;2023-04-24T00:29:58;10.20;99.90
4002;DHT22;2015;48.670;9.060;2023-04-24T00:32:29;10.20;99.90
4002;DHT22;2015;48.670;9.060;2023-04-24T00:35:02;10.20;99.90
4002;DHT22;2015;48.670;9.060;2023-04-24T00:37:33;10.20;99.90
4002;DHT22;2015;48.670;9.060;2023-04-24T00:40:06;10.20;99.90
4002;DHT22;2015;48.670;9.060;2023-04-24T00:42:39;10.20;99.90
4002;DHT22;2015;48.670;9.060;2023-04-24T00:45:12;10.20;99.90
4002;DHT22;2015;48.670;9.060;2023-04-24T00:47:45;10.20;99.90
4002;DHT22;2015;48.670;9.060;2023-04-24T00:50:18;10.20;99.90
4002;DHT22;2015;48.670;9.060;2023-04-24T00:52:51;10.20;99.90
4002;DHT22;2015;48.670;9.060;2023-04-24T00:55:22;10.20;99.90
4002;DHT22;2015;48.670;9.060;2023-04-24T00:57:56;10.30;99.90
4002;DHT22;2015;48.670;9.060;2023-04-24T01:00:27;10.30;99.90
4002;DHT22;2015;48.670;9.060;2023-04-24T01:03:01;10.30;99.90
4002;DHT22;2015;48.670;9.060;2023-04-24T01:05:36;10.30;99.90
4002;DHT22;2015;48.670;9.060;2023-04-24T01:08:08;10.20;99.90
4002;DHT22;2015;48.670;9.060;2023-04-24T01:10:41;10.30;99.90
4002;DHT22;2015;48.670;9.060;2023-04-24T01:13:13;10.30;99.90
4002;DHT22;2015;48.670;9.060;2023-04-24T01:15:46;10.40;99.90
4002;DHT22;2015;48.670;9.060;2023-04-24T01:18:18;10.40;99.90
4002;DHT22;2015;48.670;9.060;2023-04-24T01:20:51;10.40;99.90
4002;DHT22;2015;48.670;9.060;2023-04-24T01:23:25;10.40;99.90
4002;DHT22;2015;48.670;9.060;2023-04-24T01:25:57;10.40;99.90
4002;DHT22;2015;48.670;9.060;2023-04-24T01:28:29;10.40;99.90
4002;DHT22;2015;48.670;9.060;2023-04-24T01:31:01;10.40;99.90
4002;DHT22;2015;48.670;9.060;2023-04-24T01:33:32;10.40;99.90
4002;DHT22;2015;48.670;9.060;2023-04-24T01:36:04;10.30;99.90
4002;DHT22;2015;48.670;9.060;2023-04-24T01:38:37;10.30;99.90
4002;DHT22;2015;48.670;9.060;2023-04-24T01:41:09;10.20;99.90
4002;DHT22;2015;48.670;9.060;2023-04-24T01:43:41;10.10;99.90
4002;DHT22;2015;48.670;9.060;2023-04-24T01:46:13;10.00;99.90
4002;DHT22;2015;48.670;9.060;2023-04-24T01:48:45;10.10;99.90
4002;DHT22;2015;48.670;9.060;2023-04-24T01:51:17;10.10;99.90
4002;DHT22;2015;48.670;9.060;2023-04-24T01:53:49;10.10;99.90
4002;DHT22;2015;48.670;9.060;2023-04-24T01:56:22;10.00;99.90
4002;DHT22;2015;48.670;9.060;2023-04-24T01:58:54;9.90;99.90
4002;DHT22;2015;48.670;9.060;2023-04-24T02:01:26;10.00;99.90
4002;DHT22;2015;48.670;9.060;2023-04-24T02:03:58;9.90;99.90
4002;DHT22;2015;48.670;9.060;2023-04-24T02:06:30;9.90;99.90
4002;DHT22;2015;48.670;9.060;2023-04-24T02:09:03;9.90;99.90
4002;DHT22;2015;48.670;9.060;2023-04-24T02:11:35;9.80;99.90
4002;DHT22;2015;48.670;9.060;2023-04-24T02:14:06;9.80;99.90
4002;DHT22;2015;48.670;9.060;2023-04-24T02:16:38;9.80;99.90
4002;DHT22;2015;48.670;9.060;2023-04-24T02:19:10;9.80;99.90
4002;DHT22;2015;48.670;9.060;2023-04-24T02:21:42;9.80;99.90
4002;DHT22;2015;48.670;9.060;2023-04-24T02:24:14;9.80;99.90
4002;DHT22;2015;48.670;9.060;2023-04-24T02:26:46;9.70;99.90
4002;DHT22;2015;48.670;9.060;2023-04-24T02:29:17;9.60;99.90
4002;DHT22;2015;48.670;9.060;2023-04-24T02:31:49;9.60;99.90
4002;DHT22;2015;48.670;9.060;2023-04-24T02:34:21;9.70;99.90
4002;DHT22;2015;48.670;9.060;2023-04-24T02:36:54;9.70;99.90
4002;DHT22;2015;48.670;9.060;2023-04-24T02:39:26;9.60;99.90
4002;DHT22;2015;48.670;9.060;2023-04-24T02:41:58;9.60;99.90
4002;DHT22;2015;48.670;9.060;2023-04-24T02:44:30;9.60;99.90
4002;DHT22;2015;48.670;9.060;2023-04-24T02:47:01;9.60;99.90
4002;DHT22;2015;48.670;9.060;2023-04-24T02:49:33;9.60;99.90
4002;DHT22;2015;48.670;9.060;2023-04-24T02:52:05;9.50;99.90
4002;DHT22;2015;48.670;9.060;2023-04-24T02:54:37;9.60;99.90
4002;DHT22;2015;48.670;9.060;2023-04-24T02:57:08;9.50;99.90
4002;DHT22;2015;48.670;9.060;2023-04-24T02:59:40;9.50;99.90
4002;DHT22;2015;48.670;9.060;2023-04-24T03:02:12;9.60;99.90
4002;DHT22;2015;48.670;9.060;2023-04-24T03:04:44;9.60;99.90
4002;DHT22;2015;48.670;9.060;2023-04-24T03:07:16;9.60;99.90
4002;DHT22;2015;48.670;9.060;2023-04-24T03:09:48;9.70;99.90
4002;DHT22;2015;48.670;9.060;2023-04-24T03:12:20;9.70;99.90
4002;DHT22;2015;48.670;9.060;2023-04-24T03:14:51;9.80;99.90
4002;DHT22;2015;48.670;9.060;2023-04-24T03:17:23;9.80;99.90
4002;DHT22;2015;48.670;9.060;2023-04-24T03:19:55;9.70;99.90
4002;DHT22;2015;48.670;9.060;2023-04-24T03:22:27;9.70;99.90
4002;DHT22;2015;48.670;9.060;2023-04-24T03:24:59;9.70;99.90
4002;DHT22;2015;48.670;9.060;2023-04-24T03:27:31;9.60;99.90
4002;DHT22;2015;48.670;9.060;2023-04-24T03:30:03;9.60;99.90
4002;DHT22;2015;48.670;9.060;2023-04-24T03:32:35;9.60;99.90
4002;DHT22;2015;48.670;9.060;2023-04-24T03:35:07;9.60;99.90
4002;DHT22;2015;48.670;9.060;2023-04-24T03:37:40;9.60;99.90
4002;DHT22;2015;48.670;9.060;2023-04-24T03:40:12;9.60;99.90
4002;DHT22;2015;48.670;9.060;2023-04-24T03:42:43;9.60;99.90
4002;DHT22;2015;48.670;9.060;2023-04-24T03:45:15;9.60;99.90
4002;DHT22;2015;48.670;9.060;2023-04-24T03:47:47;9.50;99.90
4002;DHT22;2015;48.670;9.060;2023-04-24T03:50:19;9.60;99.90
4002;DHT22;2015;48.670;9.060;2023-04-24T03:52:50;9.50;99.90
4002;DHT22;2015;48.670;9.060;2023-04-24T03:55:22;9.50;99.90
4002;DHT22;2015;48.670;9.060;2023-04-24T03:57:54;9.40;99.90
4002;DHT22;2015;48.670;9.060;2023-04-24T04:00:26;9.40;99.90
4002;DHT22;2015;48.670;9.060;2023-04-24T04:02:57;9.40;99.90
4002;DHT22;2015;48.670;9.060;2023-04-24T04:05:29;9.40;99.90
4002;DHT22;2015;48.670;9.060;2023-04-24T04:08:01;9.40;99.90
4002;DHT22;2015;48.670;9.060;2023-04-24T04:10:33;9.40;99.90
4002;DHT22;2015;48.670;9.060;2023-04-24T04:13:05;9.40;99.90
4002;DHT22;2015;48.670;9.060;2023-04-24T04:15:38;9.40;99.90
4002;DHT22;2015;48.670;9.060;2023-04-24T04:18:09;9.40;99.90
4002;DHT22;2015;48.670;9.060;2023-04-24T04:20:41;9.50;99.90
4002;DHT22;2015;48.670;9.060;2023-04-24T04:23:13;9.50;99.90
4002;DHT22;2015;48.670;9.060;2023-04-24T04:25:45;9.60;99.90
4002;DHT22;2015;48.670;9.060;2023-04-24T04:28:16;9.50;99.90
4002;DHT22;2015;48.670;9.060;2023-04-24T04:30:51;9.60;99.90
4002;DHT22;2015;48.670;9.060;2023-04-24T04:33:25;9.50;99.90
4002;DHT22;2015;48.670;9.060;2023-04-24T04:35:57;9.40;99.90
4002;DHT22;2015;48.670;9.060;2023-04-24T04:38:29;9.30;99.90
4002;DHT22;2015;48.670;9.060;2023-04-24T04:41:01;9.20;99.90
4002;DHT22;2015;48.670;9.060;2023-04-24T04:43:33;9.10;99.90
4002;DHT22;2015;48.670;9.060;2023-04-24T04:46:06;9.00;99.90
4002;DHT22;2015;48.670;9.060;2023-04-24T04:48:39;8.90;99.90
4002;DHT22;2015;48.670;9.060;2023-04-24T04:51:11;8.80;99.90
4002;DHT22;2015;48.670;9.060;2023-04-24T04:53:44;8.70;99.90
4002;DHT22;2015;48.670;9.060;2023-04-24T04:56:16;8.70;99.90
4002;DHT22;2015;48.670;9.060;2023-04-24T04:58:48;8.70;99.90
4002;DHT22;2015;48.670;9.060;2023-04-24T05:01:19;8.60;99.90
4002;DHT22;2015;48.670;9.060;2023-04-24T05:03:51;8.60;99.90
4002;DHT22;2015;48.670;9.060;2023-04-24T05:06:23;8.60;99.90
4002;DHT22;2015;48.670;9.060;2023-04-24T05:08:55;8.50;99.90
4002;DHT22;2015;48.670;9.060;2023-04-24T05:11:29;8.50;99.90
4002;DHT22;2015;48.670;9.060;2023-04-24T05:14:01;8.50;99.90
4002;DHT22;2015;48.670;9.060;2023-04-24T05:16:33;8.60;99.90
4002;DHT22;2015;48.670;9.060;2023-04-24T05:19:05;8.60;99.90
4002;DHT22;2015;48.670;9.060;2023-04-24T05:21:37;8.60;99.90
4002;DHT22;2015;48.670;9.060;2023-04-24T05:24:10;8.60;99.90
4002;DHT22;2015;48.670;9.060;2023-04-24T05:26:42;8.70;99.90
4002;DHT22;2015;48.670;9.060;2023-04-24T05:29:14;8.80;99.90
4002;DHT22;2015;48.670;9.060;2023-04-24T05:31:46;8.80;99.90
4002;DHT22;2015;48.670;9.060;2023-04-24T05:34:17;8.80;99.90
4002;DHT22;2015;48.670;9.060;2023-04-24T05:36:49;8.90;99.90
4002;DHT22;2015;48.670;9.060;2023-04-24T05:39:22;8.90;99.90
4002;DHT22;2015;48.670;9.060;2023-04-24T05:41:54;9.00;99.90
4002;DHT22;2015;48.670;9.060;2023-04-24T05:44:29;9.00;99.90
4002;DHT22;2015;48.670;9.060;2023-04-24T05:47:01;9.10;99.90
4002;DHT22;2015;48.670;9.060;2023-04-24T05:49:33;9.10;99.90
4002;DHT22;2015;48.670;9.060;2023-04-24T05:52:05;9.10;99.90
4002;DHT22;2015;48.670;9.060;2023-04-24T05:54:40;9.10;99.90
4002;DHT22;2015;48.670;9.060;2023-04-24T05:57:11;9.10;99.90
4002;DHT22;2015;48.670;9.060;2023-04-24T05:59:43;9.10;99.90
4002;DHT22;2015;48.670;9.060;2023-04-24T06:02:15;9.10;99.90
4002;DHT22;2015;48.670;9.060;2023-04-24T06:04:48;9.20;99.90
4002;DHT22;2015;48.670;9.060;2023-04-24T06:07:20;9.10;99.90
4002;DHT22;2015;48.670;9.060;2023-04-24T06:09:52;9.00;99.90
4002;DHT22;2015;48.670;9.060;2023-04-24T06:12:25;9.00;99.90
4002;DHT22;2015;48.670;9.060;2023-04-24T06:14:57;9.00;99.90
4002;DHT22;2015;48.670;9.060;2023-04-24T06:17:29;8.90;99.90
4002;DHT22;2015;48.670;9.060;2023-04-24T06:20:02;9.00;99.90
4002;DHT22;2015;48.670;9.060;2023-04-24T06:22:36;9.10;99.90
4002;DHT22;2015;48.670;9.060;2023-04-24T06:25:08;9.20;99.90
4002;DHT22;2015;48.670;9.060;2023-04-24T06:27:40;9.30;99.90
4002;DHT22;2015;48.670;9.060;2023-04-24T06:30:12;9.50;99.90
4002;DHT22;2015;48.670;9.060;2023-04-24T06:32:44;9.60;99.90
4002;DHT22;2015;48.670;9.060;2023-04-24T06:35:15;9.80;99.90
4002;DHT22;2015;48.670;9.060;2023-04-24T06:37:47;9.90;99.90
4002;DHT22;2015;48.670;9.060;2023-04-24T06:40:19;10.00;99.90
4002;DHT22;2015;48.670;9.060;2023-04-24T06:42:51;10.10;99.90
4002;DHT22;2015;48.670;9.060;2023-04-24T06:45:23;10.20;99.90
4002;DHT22;2015;48.670;9.060;2023-04-24T06:47:55;10.20;99.90
4002;DHT22;2015;48.670;9.060;2023-04-24T06:50:27;10.20;99.90
4002;DHT22;2015;48.670;9.060;2023-04-24T06:52:59;10.40;99.90
4002;DHT22;2015;48.670;9.060;2023-04-24T06:55:30;10.50;99.90
4002;DHT22;2015;48.670;9.060;2023-04-24T06:58:02;10.70;99.90
4002;DHT22;2015;48.670;9.060;2023-04-24T07:00:34;10.80;99.90
4002;DHT22;2015;48.670;9.060;2023-04-24T07:03:06;10.90;99.90
4002;DHT22;2015;48.670;9.060;2023-04-24T07:05:38;10.90;99.90
4002;DHT22;2015;48.670;9.060;2023-04-24T07:08:10;10.90;99.90
4002;DHT22;2015;48.670;9.060;2023-04-24T07:10:43;11.00;99.90
4002;DHT22;2015;48.670;9.060;2023-04-24T07:13:15;10.90;99.90
4002;DHT22;2015;48.670;9.060;2023-04-24T07:15:47;10.80;99.90
4002;DHT22;2015;48.670;9.060;2023-04-24T07:18:22;10.60;99.90
4002;DHT22;2015;48.670;9.060;2023-04-24T07:20:54;10.50;99.90
4002;DHT22;2015;48.670;9.060;2023-04-24T07:23:26;10.30;99.90
4002;DHT22;2015;48.670;9.060;2023-04-24T07:25:58;10.00;99.90
4002;DHT22;2015;48.670;9.060;2023-04-24T07:28:30;9.80;99.90
4002;DHT22;2015;48.670;9.060;2023-04-24T07:31:02;9.70;99.90
4002;DHT22;2015;48.670;9.060;2023-04-24T07:33:34;9.80;99.90
4002;DHT22;2015;48.670;9.060;2023-04-24T07:36:07;9.90;99.90
4002;DHT22;2015;48.670;9.060;2023-04-24T07:38:39;10.20;99.90
4002;DHT22;2015;48.670;9.060;2023-04-24T07:41:13;10.50;99.90
4002;DHT22;2015;48.670;9.060;2023-04-24T07:43:44;10.70;99.90
4002;DHT22;2015;48.670;9.060;2023-04-24T07:46:17;10.80;99.90
4002;DHT22;2015;48.670;9.060;2023-04-24T07:48:49;11.00;99.90
4002;DHT22;2015;48.670;9.060;2023-04-24T07:51:36;11.20;99.90
4002;DHT22;2015;48.670;9.060;2023-04-24T07:54:09;11.40;99.90
4002;DHT22;2015;48.670;9.060;2023-04-24T07:56:42;11.50;99.90
4002;DHT22;2015;48.670;9.060;2023-04-24T07:59:15;11.60;99.90
4002;DHT22;2015;48.670;9.060;2023-04-24T08:01:47;11.70;99.90
4002;DHT22;2015;48.670;9.060;2023-04-24T08:04:18;11.70;99.90
4002;DHT22;2015;48.670;9.060;2023-04-24T08:06:50;11.60;99.90
4002;DHT22;2015;48.670;9.060;2023-04-24T08:09:22;11.60;99.90
4002;DHT22;2015;48.670;9.060;2023-04-24T08:11:57;11.80;99.90
4002;DHT22;2015;48.670;9.060;2023-04-24T08:14:28;11.90;99.90
4002;DHT22;2015;48.670;9.060;2023-04-24T08:17:00;11.90;99.90
4002;DHT22;2015;48.670;9.060;2023-04-24T08:19:32;11.80;99.90
4002;DHT22;2015;48.670;9.060;2023-04-24T08:22:04;11.60;99.90
4002;DHT22;2015;48.670;9.060;2023-04-24T08:24:36;11.30;99.90
4002;DHT22;2015;48.670;9.060;2023-04-24T08:27:09;11.20;99.90
4002;DHT22;2015;48.670;9.060;2023-04-24T08:29:41;11.20;99.90
4002;DHT22;2015;48.670;9.060;2023-04-24T08:32:14;11.20;99.90
4002;DHT22;2015;48.670;9.060;2023-04-24T08:34:45;11.40;99.90
4002;DHT22;2015;48.670;9.060;2023-04-24T08:37:20;11.60;99.90
4002;DHT22;2015;48.670;9.060;2023-04-24T08:39:52;11.60;99.90
4002;DHT22;2015;48.670;9.060;2023-04-24T08:42:24;11.80;99.90
4002;DHT22;2015;48.670;9.060;2023-04-24T08:44:57;11.80;99.90
4002;DHT22;2015;48.670;9.060;2023-04-24T08:47:29;11.80;99.90
4002;DHT22;2015;48.670;9.060;2023-04-24T08:50:05;12.00;99.90
4002;DHT22;2015;48.670;9.060;2023-04-24T08:52:38;12.00;99.90
4002;DHT22;2015;48.670;9.060;2023-04-24T08:55:10;12.00;99.90
4002;DHT22;2015;48.670;9.060;2023-04-24T08:57:44;12.00;99.90
4002;DHT22;2015;48.670;9.060;2023-04-24T09:00:16;12.00;99.90
4002;DHT22;2015;48.670;9.060;2023-04-24T09:02:50;11.90;99.90
4002;DHT22;2015;48.670;9.060;2023-04-24T09:05:22;11.80;99.90
4002;DHT22;2015;48.670;9.060;2023-04-24T09:07:59;12.00;99.90
4002;DHT22;2015;48.670;9.060;2023-04-24T09:10:34;12.20;99.90
4002;DHT22;2015;48.670;9.060;2023-04-24T09:13:06;12.70;99.90
4002;DHT22;2015;48.670;9.060;2023-04-24T09:15:41;12.90;99.90
4002;DHT22;2015;48.670;9.060;2023-04-24T09:18:13;12.90;99.90
4002;DHT22;2015;48.670;9.060;2023-04-24T09:21:03;13.30;99.90
4002;DHT22;2015;48.670;9.060;2023-04-24T09:23:36;13.80;99.90
4002;DHT22;2015;48.670;9.060;2023-04-24T09:26:09;14.90;99.90
4002;DHT22;2015;48.670;9.060;2023-04-24T09:28:41;15.10;99.90
4002;DHT22;2015;48.670;9.060;2023-04-24T09:31:16;14.80;99.90
4002;DHT22;2015;48.670;9.060;2023-04-24T09:34:02;14.90;99.90
4002;DHT22;2015;48.670;9.060;2023-04-24T09:36:41;16.10;99.90
4002;DHT22;2015;48.670;9.060;2023-04-24T09:39:15;17.40;99.90
4002;DHT22;2015;48.670;9.060;2023-04-24T09:41:54;17.70;99.90
4002;DHT22;2015;48.670;9.060;2023-04-24T09:44:29;18.30;99.90
4002;DHT22;2015;48.670;9.060;2023-04-24T09:47:01;18.10;99.00
4002;DHT22;2015;48.670;9.060;2023-04-24T09:49:32;19.10;98.10
4002;DHT22;2015;48.670;9.060;2023-04-24T09:52:10;19.60;98.00
4002;DHT22;2015;48.670;9.060;2023-04-24T09:54:53;19.30;94.00
4002;DHT22;2015;48.670;9.060;2023-04-24T09:57:25;17.90;96.70
4002;DHT22;2015;48.670;9.060;2023-04-24T09:59:57;16.90;98.50
4002;DHT22;2015;48.670;9.060;2023-04-24T10:02:31;16.60;99.90
4002;DHT22;2015;48.670;9.060;2023-04-24T10:05:04;16.10;99.90
4002;DHT22;2015;48.670;9.060;2023-04-24T10:07:37;16.30;99.90
4002;DHT22;2015;48.670;9.060;2023-04-24T10:10:09;16.50;98.40
4002;DHT22;2015;48.670;9.060;2023-04-24T10:12:43;17.10;99.80
4002;DHT22;2015;48.670;9.060;2023-04-24T10:15:15;17.90;98.10
4002;DHT22;2015;48.670;9.060;2023-04-24T10:17:52;18.50;97.80
4002;DHT22;2015;48.670;9.060;2023-04-24T10:20:26;19.90;93.80
4002;DHT22;2015;48.670;9.060;2023-04-24T10:22:59;19.90;94.90
4002;DHT22;2015;48.670;9.060;2023-04-24T10:25:34;19.20;95.70
4002;DHT22;2015;48.670;9.060;2023-04-24T10:28:06;19.00;94.80
4002;DHT22;2015;48.670;9.060;2023-04-24T10:30:43;17.60;96.30
4002;DHT22;2015;48.670;9.060;2023-04-24T10:33:15;16.80;99.70
4002;DHT22;2015;48.670;9.060;2023-04-24T10:35:49;15.90;99.10
4002;DHT22;2015;48.670;9.060;2023-04-24T10:38:24;15.00;99.90
4002;DHT22;2015;48.670;9.060;2023-04-24T10:41:10;14.90;99.90
4002;DHT22;2015;48.670;9.060;2023-04-24T10:43:47;14.90;99.90
4002;DHT22;2015;48.670;9.060;2023-04-24T10:46:22;14.90;99.90
4002;DHT22;2015;48.670;9.060;2023-04-24T10:48:54;15.30;99.90
4002;DHT22;2015;48.670;9.060;2023-04-24T10:51:45;15.00;99.90
4002;DHT22;2015;48.670;9.060;2023-04-24T10:54:29;14.40;99.90
4002;DHT22;2015;48.670;9.060;2023-04-24T11:02:48;13.80;99.90
4002;DHT22;2015;48.670;9.060;2023-04-24T11:05:22;14.00;99.90
4002;DHT22;2015;48.670;9.060;2023-04-24T11:08:14;14.90;99.90
4002;DHT22;2015;48.670;9.060;2023-04-24T11:10:56;15.80;99.90
4002;DHT22;2015;48.670;9.060;2023-04-24T11:16:28;15.80;99.90
4002;DHT22;2015;48.670;9.060;2023-04-24T11:19:17;16.10;99.90
4002;DHT22;2015;48.670;9.060;2023-04-24T11:22:02;15.50;99.90
4002;DHT22;2015;48.670;9.060;2023-04-24T11:25:01;15.10;99.90
4002;DHT22;2015;48.670;9.060;2023-04-24T11:30:12;14.20;99.90
4002;DHT22;2015;48.670;9.060;2023-04-24T11:32:47;14.10;99.90
4002;DHT22;2015;48.670;9.060;2023-04-24T11:35:23;14.00;99.90
4002;DHT22;2015;48.670;9.060;2023-04-24T11:37:59;13.40;99.90
4002;DHT22;2015;48.670;9.060;2023-04-24T11:40:54;13.20;99.90
4002;DHT22;2015;48.670;9.060;2023-04-24T11:43:28;13.30;99.90
4002;DHT22;2015;48.670;9.060;2023-04-24T11:46:04;13.60;99.90
4002;DHT22;2015;48.670;9.060;2023-04-24T11:48:37;13.40;99.90
4002;DHT22;2015;48.670;9.060;2023-04-24T11:51:12;13.20;99.90
4002;DHT22;2015;48.670;9.060;2023-04-24T11:53:44;12.90;99.90
4002;DHT22;2015;48.670;9.060;2023-04-24T11:56:24;12.80;99.90
4002;DHT22;2015;48.670;9.060;2023-04-24T11:58:56;12.90;99.90
4002;DHT22;2015;48.670;9.060;2023-04-24T12:01:27;12.80;99.90
4002;DHT22;2015;48.670;9.060;2023-04-24T12:04:00;12.90;99.90
4002;DHT22;2015;48.670;9.060;2023-04-24T12:06:32;12.80;99.90
4002;DHT22;2015;48.670;9.060;2023-04-24T12:09:04;12.40;99.90
4002;DHT22;2015;48.670;9.060;2023-04-24T12:11:56;12.00;99.90
4002;DHT22;2015;48.670;9.060;2023-04-24T12:14:31;11.90;99.90
4002;DHT22;2015;48.670;9.060;2023-04-24T12:17:03;11.80;99.90
4002;DHT22;2015;48.670;9.060;2023-04-24T12:19:35;11.90;99.90
4002;DHT22;2015;48.670;9.060;2023-04-24T12:22:07;12.10;99.90
4002;DHT22;2015;48.670;9.060;2023-04-24T12:25:03;12.20;99.90
4002;DHT22;2015;48.670;9.060;2023-04-24T12:27:36;12.40;99.90
4002;DHT22;2015;48.670;9.060;2023-04-24T12:30:16;12.50;99.90
4002;DHT22;2015;48.670;9.060;2023-04-24T12:32:49;12.70;99.90
4002;DHT22;2015;48.670;9.060;2023-04-24T12:35:23;12.70;99.90
4002;DHT22;2015;48.670;9.060;2023-04-24T12:37:55;12.60;99.90
4002;DHT22;2015;48.670;9.060;2023-04-24T12:40:26;12.60;99.90
4002;DHT22;2015;48.670;9.060;2023-04-24T12:43:00;12.70;99.90
4002;DHT22;2015;48.670;9.060;2023-04-24T12:45:32;12.60;99.90
4002;DHT22;2015;48.670;9.060;2023-04-24T12:48:04;13.00;99.90
4002;DHT22;2015;48.670;9.060;2023-04-24T12:50:36;13.10;99.90
4002;DHT22;2015;48.670;9.060;2023-04-24T12:53:08;13.00;99.90
4002;DHT22;2015;48.670;9.060;2023-04-24T12:55:40;12.90;99.90
4002;DHT22;2015;48.670;9.060;2023-04-24T12:58:13;12.70;99.90
4002;DHT22;2015;48.670;9.060;2023-04-24T13:00:44;12.40;99.90
4002;DHT22;2015;48.670;9.060;2023-04-24T13:03:17;12.20;99.90
4002;DHT22;2015;48.670;9.060;2023-04-24T13:05:50;12.10;99.90
4002;DHT22;2015;48.670;9.060;2023-04-24T13:08:21;11.90;99.90
4002;DHT22;2015;48.670;9.060;2023-04-24T13:10:53;11.90;99.90
4002;DHT22;2015;48.670;9.060;2023-04-24T13:13:25;11.80;99.90
4002;DHT22;2015;48.670;9.060;2023-04-24T13:15:57;11.90;99.90
4002;DHT22;2015;48.670;9.060;2023-04-24T13:18:29;12.00;99.90
4002;DHT22;2015;48.670;9.060;2023-04-24T13:21:00;12.10;99.90
4002;DHT22;2015;48.670;9.060;2023-04-24T13:23:32;12.10;99.90
4002;DHT22;2015;48.670;9.060;2023-04-24T13:26:04;12.00;99.90
4002;DHT22;2015;48.670;9.060;2023-04-24T13:28:36;11.80;99.90
4002;DHT22;2015;48.670;9.060;2023-04-24T13:31:09;11.60;99.90
4002;DHT22;2015;48.670;9.060;2023-04-24T13:33:41;11.60;99.90
4002;DHT22;2015;48.670;9.060;2023-04-24T13:36:13;11.50;99.90
4002;DHT22;2015;48.670;9.060;2023-04-24T13:38:45;11.50;99.90
4002;DHT22;2015;48.670;9.060;2023-04-24T13:41:17;11.40;99.90
4002;DHT22;2015;48.670;9.060;2023-04-24T13:43:49;11.30;99.90
4002;DHT22;2015;48.670;9.060;2023-04-24T13:46:20;11.30;99.90
4002;DHT22;2015;48.670;9.060;2023-04-24T13:48:52;11.20;99.90
4002;DHT22;2015;48.670;9.060;2023-04-24T13:51:26;11.20;99.90
4002;DHT22;2015;48.670;9.060;2023-04-24T13:54:00;11.40;99.90
4002;DHT22;2015;48.670;9.060;2023-04-24T13:56:32;11.50;99.90
4002;DHT22;2015;48.670;9.060;2023-04-24T13:59:05;11.60;99.90
4002;DHT22;2015;48.670;9.060;2023-04-24T14:01:37;11.60;99.90
4002;DHT22;2015;48.670;9.060;2023-04-24T14:04:08;11.70;99.90
4002;DHT22;2015;48.670;9.060;2023-04-24T14:06:40;11.70;99.90
4002;DHT22;2015;48.670;9.060;2023-04-24T14:09:12;11.70;99.90
4002;DHT22;2015;48.670;9.060;2023-04-24T14:11:44;11.70;99.90
4002;DHT22;2015;48.670;9.060;2023-04-24T14:14:16;11.60;99.90
4002;DHT22;2015;48.670;9.060;2023-04-24T14:16:48;11.50;99.90
4002;DHT22;2015;48.670;9.060;2023-04-24T14:19:19;11.20;99.90
4002;DHT22;2015;48.670;9.060;2023-04-24T14:21:51;11.10;99.90
4002;DHT22;2015;48.670;9.060;2023-04-24T14:24:23;10.80;99.90
4002;DHT22;2015;48.670;9.060;2023-04-24T14:26:55;10.70;99.90
4002;DHT22;2015;48.670;9.060;2023-04-24T14:29:28;10.50;99.90
4002;DHT22;2015;48.670;9.060;2023-04-24T14:31:59;10.60;99.90
4002;DHT22;2015;48.670;9.060;2023-04-24T14:34:31;10.80;99.90
4002;DHT22;2015;48.670;9.060;2023-04-24T14:37:04;11.00;99.90
4002;DHT22;2015;48.670;9.060;2023-04-24T14:39:35;11.00;99.90
4002;DHT22;2015;48.670;9.060;2023-04-24T14:42:07;11.10;99.90
4002;DHT22;2015;48.670;9.060;2023-04-24T14:44:39;11.30;99.90
4002;DHT22;2015;48.670;9.060;2023-04-24T14:47:11;11.50;99.90
4002;DHT22;2015;48.670;9.060;2023-04-24T14:49:43;11.70;99.90
4002;DHT22;2015;48.670;9.060;2023-04-24T14:52:18;11.70;99.90
4002;DHT22;2015;48.670;9.060;2023-04-24T14:54:50;11.90;99.90
4002;DHT22;2015;48.670;9.060;2023-04-24T14:57:22;11.90;99.90
4002;DHT22;2015;48.670;9.060;2023-04-24T14:59:54;11.70;99.90
4002;DHT22;2015;48.670;9.060;2023-04-24T15:02:26;11.60;99.90
4002;DHT22;2015;48.670;9.060;2023-04-24T15:04:58;11.40;99.90
4002;DHT22;2015;48.670;9.060;2023-04-24T15:07:30;11.30;99.90
4002;DHT22;2015;48.670;9.060;2023-04-24T15:10:03;11.40;99.90
4002;DHT22;2015;48.670;9.060;2023-04-24T15:12:35;11.40;99.90
4002;DHT22;2015;48.670;9.060;2023-04-24T15:15:08;11.50;99.90
4002;DHT22;2015;48.670;9.060;2023-04-24T15:17:40;11.50;99.90
4002;DHT22;2015;48.670;9.060;2023-04-24T15:20:12;11.50;99.90
4002;DHT22;2015;48.670;9.060;2023-04-24T15:22:43;11.60;99.90
4002;DHT22;2015;48.670;9.060;2023-04-24T15:25:15;11.60;99.90
4002;DHT22;2015;48.670;9.060;2023-04-24T15:27:47;11.40;99.90
4002;DHT22;2015;48.670;9.060;2023-04-24T15:30:19;11.30;99.90
4002;DHT22;2015;48.670;9.060;2023-04-24T15:32:50;11.30;99.90
4002;DHT22;2015;48.670;9.060;2023-04-24T15:35:22;11.40;99.90
4002;DHT22;2015;48.670;9.060;2023-04-24T15:37:54;11.40;99.90
4002;DHT22;2015;48.670;9.060;2023-04-24T15:40:26;11.30;99.90
4002;DHT22;2015;48.670;9.060;2023-04-24T15:42:58;11.30;99.90
4002;DHT22;2015;48.670;9.060;2023-04-24T15:45:30;11.30;99.90
4002;DHT22;2015;48.670;9.060;2023-04-24T15:48:01;11.30;99.90
4002;DHT22;2015;48.670;9.060;2023-04-24T15:50:33;11.30;99.90
4002;DHT22;2015;48.670;9.060;2023-04-24T15:53:05;11.50;99.90
4002;DHT22;2015;48.670;9.060;2023-04-24T15:55:37;11.50;99.90
4002;DHT22;2015;48.670;9.060;2023-04-24T15:58:09;11.60;99.90
4002;DHT22;2015;48.670;9.060;2023-04-24T16:00:42;11.60;99.90
4002;DHT22;2015;48.670;9.060;2023-04-24T16:03:14;11.60;99.90
4002;DHT22;2015;48.670;9.060;2023-04-24T16:05:46;11.70;99.90
4002;DHT22;2015;48.670;9.060;2023-04-24T16:08:18;11.90;99.90
4002;DHT22;2015;48.670;9.060;2023-04-24T16:10:51;11.90;99.90
4002;DHT22;2015;48.670;9.060;2023-04-24T16:13:23;12.00;99.90
4002;DHT22;2015;48.670;9.060;2023-04-24T16:15:54;12.00;99.90
4002;DHT22;2015;48.670;9.060;2023-04-24T16:18:26;11.90;99.90
4002;DHT22;2015;48.670;9.060;2023-04-24T16:20:58;11.90;99.90
4002;DHT22;2015;48.670;9.060;2023-04-24T16:23:30;11.80;99.90
4002;DHT22;2015;48.670;9.060;2023-04-24T16:26:02;11.80;99.90
4002;DHT22;2015;48.670;9.060;2023-04-24T16:28:33;11.70;99.90
4002;DHT22;2015;48.670;9.060;2023-04-24T16:31:05;11.60;99.90
4002;DHT22;2015;48.670;9.060;2023-04-24T16:33:37;11.50;99.90
4002;DHT22;2015;48.670;9.060;2023-04-24T16:36:10;11.50;99.90
4002;DHT22;2015;48.670;9.060;2023-04-24T16:38:43;11.60;99.90
4002;DHT22;2015;48.670;9.060;2023-04-24T16:41:15;11.50;99.90
4002;DHT22;2015;48.670;9.060;2023-04-24T16:43:48;11.40;99.90
4002;DHT22;2015;48.670;9.060;2023-04-24T16:46:21;11.40;99.90
4002;DHT22;2015;48.670;9.060;2023-04-24T16:48:53;11.40;99.90
4002;DHT22;2015;48.670;9.060;2023-04-24T16:51:25;11.40;99.90
4002;DHT22;2015;48.670;9.060;2023-04-24T16:53:58;11.40;99.90
4002;DHT22;2015;48.670;9.060;2023-04-24T16:56:30;11.40;99.90